Time;durP1;ratioP1;P1;durP2;ratioP2;P2;SDS_P1;SDS_P2;PMS_P1;PMS_P2;Temp;Humidity;BMP_temperature;BMP_pressure;BME280_temperature;BME280_humidity;BME280_pressure;Samples;Min_cycle;Max_cycle;Signal;HPM_P1;HPM_P2
2021/09/16 00:02:22;;;;;;;2.38;0.90;;;;;;;;;;5010789;28;20061;-45
2021/09/16 00:04:47;;;;;;;2.63;1.00;;;;;;;;;;5005907;28;20820;-46
2021/09/16 00:07:13;;;;;;;6.20;0.80;;;;;;;;;;5012301;28;20025;-45
2021/09/16 00:09:38;;;;;;;1.35;0.40;;;;;;;;;;5016499;28;20122;-46
2021/09/16 00:12:04;;;;;;;4.78;0.68;;;;;;;;;;5016339;28;20026;-49
2021/09/16 00:14:29;;;;;;;5.60;0.77;;;;;;;;;;5015600;28;20021;-47
2021/09/16 00:16:54;;;;;;;5.32;1.05;;;;;;;;;;5009275;28;20204;-47
2021/09/16 00:19:19;;;;;;;0.98;0.40;;;;;;;;;;5013230;28;20501;-46
2021/09/16 00:21:45;;;;;;;2.65;1.05;;;;;;;;;;5013511;28;20045;-46
2021/09/16 00:24:10;;;;;;;3.63;0.52;;;;;;;;;;5015233;28;20693;-46
2021/09/16 00:26:35;;;;;;;5.18;0.70;;;;;;;;;;5019045;28;20025;-48
2021/09/16 00:29:01;;;;;;;4.13;0.85;;;;;;;;;;5012852;28;20029;-46
2021/09/16 00:31:26;;;;;;;3.45;1.45;;;;;;;;;;5013161;28;20053;-46
2021/09/16 00:33:51;;;;;;;6.97;0.93;;;;;;;;;;5015791;28;20026;-47
2021/09/16 00:36:16;;;;;;;7.28;2.03;;;;;;;;;;5015500;28;20048;-46
2021/09/16 00:38:42;;;;;;;10.82;1.48;;;;;;;;;;5018695;28;20087;-51
2021/09/16 00:41:08;;;;;;;4.88;1.17;;;;;;;;;;5014493;28;20562;-49
2021/09/16 00:43:33;;;;;;;2.97;1.08;;;;;;;;;;5012635;28;20060;-51
2021/09/16 00:46:05;;;;;;;12.73;1.48;;;;;;;;;;5016744;28;20072;-52
2021/09/16 00:48:30;;;;;;;12.38;2.67;;;;;;;;;;5013707;28;20029;-50
2021/09/16 00:50:56;;;;;;;14.30;3.78;;;;;;;;;;5011681;28;20049;-51
2021/09/16 00:53:21;;;;;;;4.20;2.38;;;;;;;;;;5017154;28;20028;-49
2021/09/16 00:55:48;;;;;;;2.85;1.42;;;;;;;;;;5013189;28;20953;-46
2021/09/16 00:58:14;;;;;;;2.45;1.08;;;;;;;;;;5017017;28;20083;-50
2021/09/16 01:00:39;;;;;;;4.78;1.15;;;;;;;;;;5017564;28;20021;-51
2021/09/16 01:03:05;;;;;;;11.10;0.88;;;;;;;;;;5013923;28;20033;-46
2021/09/16 01:05:30;;;;;;;9.90;1.83;;;;;;;;;;5012381;28;20061;-51
2021/09/16 01:07:57;;;;;;;16.60;1.73;;;;;;;;;;5013634;28;20037;-48
2021/09/16 01:10:22;;;;;;;4.68;2.60;;;;;;;;;;5016690;28;20048;-48
2021/09/16 01:12:48;;;;;;;14.82;3.45;;;;;;;;;;5019665;28;20529;-47
2021/09/16 01:15:13;;;;;;;13.45;2.20;;;;;;;;;;5013916;28;20087;-49
2021/09/16 01:17:38;;;;;;;12.73;2.55;;;;;;;;;;5016641;28;20028;-46
2021/09/16 01:20:05;;;;;;;5.10;1.63;;;;;;;;;;5015793;28;20044;-46
2021/09/16 01:22:34;;;;;;;18.60;2.00;;;;;;;;;;5012889;28;20029;-46
2021/09/16 01:24:59;;;;;;;7.55;2.35;;;;;;;;;;5015189;28;20037;-49
2021/09/16 01:27:24;;;;;;;7.43;1.92;;;;;;;;;;5016395;28;20085;-49
2021/09/16 01:29:50;;;;;;;2.80;2.03;;;;;;;;;;5015988;28;20020;-49
2021/09/16 01:32:15;;;;;;;7.13;1.27;;;;;;;;;;5010313;28;20018;-46
2021/09/16 01:34:40;;;;;;;7.13;1.60;;;;;;;;;;5013774;28;20033;-46
2021/09/16 01:37:07;;;;;;;9.30;1.63;;;;;;;;;;5009019;28;20017;-47
2021/09/16 01:39:34;;;;;;;3.70;1.15;;;;;;;;;;5009676;28;20030;-50
2021/09/16 01:41:59;;;;;;;6.45;1.42;;;;;;;;;;5006827;28;20108;-47
2021/09/16 01:44:25;;;;;;;7.05;2.45;;;;;;;;;;5013451;28;20535;-48
2021/09/16 01:46:50;;;;;;;5.78;1.50;;;;;;;;;;5017109;28;20512;-47
2021/09/16 01:49:15;;;;;;;10.85;2.78;;;;;;;;;;5009658;28;20540;-47
2021/09/16 01:51:41;;;;;;;3.53;1.05;;;;;;;;;;5008816;28;20049;-46
2021/09/16 01:54:06;;;;;;;13.25;2.65;;;;;;;;;;5009394;28;20045;-46
2021/09/16 01:56:32;;;;;;;5.47;1.17;;;;;;;;;;5021299;28;20923;-47
2021/09/16 01:58:57;;;;;;;1.45;0.98;;;;;;;;;;5021244;28;20033;-48
2021/09/16 02:01:23;;;;;;;33.17;3.28;;;;;;;;;;5019978;28;20029;-47
2021/09/16 02:03:48;;;;;;;7.88;1.45;;;;;;;;;;5021463;28;20025;-48
2021/09/16 02:06:14;;;;;;;11.52;1.58;;;;;;;;;;5019136;28;20045;-46
2021/09/16 02:08:39;;;;;;;4.32;1.55;;;;;;;;;;5018975;28;20025;-47
2021/09/16 02:11:05;;;;;;;5.18;1.33;;;;;;;;;;5014290;28;20018;-46
2021/09/16 02:13:33;;;;;;;19.27;2.50;;;;;;;;;;5017689;28;20116;-49
2021/09/16 02:15:58;;;;;;;2.05;1.13;;;;;;;;;;5016049;28;20061;-46
2021/09/16 02:18:23;;;;;;;9.35;2.10;;;;;;;;;;5014250;28;20060;-47
2021/09/16 02:20:49;;;;;;;6.53;2.63;;;;;;;;;;5017389;28;20076;-46
2021/09/16 02:23:16;;;;;;;15.00;2.15;;;;;;;;;;5016314;28;20022;-46
2021/09/16 02:25:42;;;;;;;6.88;2.13;;;;;;;;;;5019906;28;20079;-48
2021/09/16 02:28:07;;;;;;;10.45;2.22;;;;;;;;;;5019692;28;20658;-46
2021/09/16 02:30:32;;;;;;;9.73;3.10;;;;;;;;;;5018673;28;20025;-50
2021/09/16 02:32:57;;;;;;;16.45;2.80;;;;;;;;;;5020483;28;20281;-48
2021/09/16 02:35:23;;;;;;;8.02;1.48;;;;;;;;;;5014472;28;20017;-49
2021/09/16 02:37:48;;;;;;;7.78;1.98;;;;;;;;;;5019613;28;20473;-45
2021/09/16 02:40:13;;;;;;;14.23;1.98;;;;;;;;;;5017420;28;20017;-45
2021/09/16 02:42:39;;;;;;;4.70;1.80;;;;;;;;;;5014924;28;20021;-48
2021/09/16 02:45:05;;;;;;;11.35;2.17;;;;;;;;;;5022076;28;20095;-46
2021/09/16 02:47:30;;;;;;;17.48;2.80;;;;;;;;;;5023223;28;20030;-47
2021/09/16 02:49:56;;;;;;;4.53;2.08;;;;;;;;;;5017463;28;20420;-46
2021/09/16 02:52:21;;;;;;;6.05;1.33;;;;;;;;;;5020578;28;20033;-47
2021/09/16 02:54:46;;;;;;;9.63;2.47;;;;;;;;;;5014842;28;20028;-47
2021/09/16 02:57:12;;;;;;;13.07;2.38;;;;;;;;;;5021184;28;20524;-46
2021/09/16 02:59:37;;;;;;;8.57;2.75;;;;;;;;;;5021122;28;20021;-47
2021/09/16 03:02:02;;;;;;;1.15;0.63;;;;;;;;;;5018021;28;20033;-47
2021/09/16 03:04:28;;;;;;;5.35;2.30;;;;;;;;;;5016632;28;20117;-46
2021/09/16 03:06:53;;;;;;;7.82;2.17;;;;;;;;;;5017667;28;20029;-47
2021/09/16 03:09:18;;;;;;;8.43;2.00;;;;;;;;;;5020691;28;20756;-47
2021/09/16 03:11:44;;;;;;;14.07;2.90;;;;;;;;;;5017448;28;20037;-45
2021/09/16 03:14:10;;;;;;;4.53;0.52;;;;;;;;;;5015654;28;20018;-47
2021/09/16 03:16:35;;;;;;;9.57;2.35;;;;;;;;;;5013797;28;20021;-47
2021/09/16 03:19:01;;;;;;;3.00;0.98;;;;;;;;;;5016872;28;20017;-48
2021/09/16 03:21:26;;;;;;;20.00;2.17;;;;;;;;;;5013562;28;20041;-47
2021/09/16 03:23:51;;;;;;;5.65;0.88;;;;;;;;;;5016208;28;20133;-49
2021/09/16 03:26:16;;;;;;;14.02;2.65;;;;;;;;;;5014992;28;20029;-46
2021/09/16 03:28:42;;;;;;;8.50;2.05;;;;;;;;;;5021590;28;20612;-46
2021/09/16 03:31:07;;;;;;;10.45;2.63;;;;;;;;;;5023592;28;20141;-44
2021/09/16 03:33:33;;;;;;;4.82;1.48;;;;;;;;;;5019637;28;20033;-48
2021/09/16 03:35:59;;;;;;;7.07;2.35;;;;;;;;;;5017034;28;20057;-47
2021/09/16 03:38:24;;;;;;;5.30;1.75;;;;;;;;;;5015566;28;20025;-50
2021/09/16 03:40:50;;;;;;;11.15;2.17;;;;;;;;;;5016689;28;20644;-46
2021/09/16 03:43:15;;;;;;;2.00;1.13;;;;;;;;;;5013527;28;20404;-45
2021/09/16 03:45:40;;;;;;;3.92;1.23;;;;;;;;;;5016487;28;20075;-46
2021/09/16 03:48:06;;;;;;;3.55;1.42;;;;;;;;;;5016152;28;20578;-48
2021/09/16 03:50:31;;;;;;;2.67;1.02;;;;;;;;;;5017152;28;20473;-47
2021/09/16 03:52:56;;;;;;;12.23;2.70;;;;;;;;;;5021289;28;20050;-48
2021/09/16 03:55:22;;;;;;;10.27;1.48;;;;;;;;;;5015536;28;20833;-45
2021/09/16 03:57:47;;;;;;;4.45;1.55;;;;;;;;;;5011646;28;20030;-46
2021/09/16 04:00:13;;;;;;;15.93;1.08;;;;;;;;;;5021224;28;20517;-46
2021/09/16 04:02:39;;;;;;;11.77;2.45;;;;;;;;;;5013551;28;20044;-49
2021/09/16 04:05:04;;;;;;;11.07;1.65;;;;;;;;;;5017321;28;20112;-45
2021/09/16 04:07:29;;;;;;;5.57;2.17;;;;;;;;;;5013125;28;20094;-48
2021/09/16 04:09:55;;;;;;;7.05;1.48;;;;;;;;;;5015122;28;20493;-45
2021/09/16 04:12:20;;;;;;;4.13;1.95;;;;;;;;;;5014735;28;20057;-45
2021/09/16 04:14:45;;;;;;;10.95;2.08;;;;;;;;;;5016887;28;20025;-50
2021/09/16 04:17:11;;;;;;;8.07;3.05;;;;;;;;;;5021741;28;20119;-50
2021/09/16 04:19:36;;;;;;;12.20;2.15;;;;;;;;;;5013494;28;20071;-52
2021/09/16 04:22:01;;;;;;;7.80;1.35;;;;;;;;;;5016373;28;20103;-48
2021/09/16 04:24:27;;;;;;;6.70;1.92;;;;;;;;;;5015209;28;20791;-50
2021/09/16 04:26:52;;;;;;;14.35;3.10;;;;;;;;;;5012790;28;20105;-48
2021/09/16 04:29:18;;;;;;;12.95;2.35;;;;;;;;;;5015705;28;20639;-51
2021/09/16 04:31:44;;;;;;;14.38;2.47;;;;;;;;;;5017689;28;20070;-51
2021/09/16 04:34:09;;;;;;;10.25;2.35;;;;;;;;;;5015572;28;20120;-51
2021/09/16 04:36:35;;;;;;;6.70;3.50;;;;;;;;;;5016726;28;20025;-50
2021/09/16 04:39:01;;;;;;;10.93;3.65;;;;;;;;;;5014804;28;20029;-50
2021/09/16 04:41:26;;;;;;;5.53;1.27;;;;;;;;;;5013474;28;20028;-52
2021/09/16 04:43:51;;;;;;;14.73;4.22;;;;;;;;;;5020336;28;20017;-50
2021/09/16 04:46:17;;;;;;;35.70;4.40;;;;;;;;;;5015543;28;20112;-47
2021/09/16 04:48:42;;;;;;;8.32;3.75;;;;;;;;;;5017348;28;20053;-50
2021/09/16 04:51:07;;;;;;;5.22;3.28;;;;;;;;;;5019024;28;20049;-47
2021/09/16 04:53:32;;;;;;;13.00;2.78;;;;;;;;;;5015200;28;20014;-46
2021/09/16 04:55:58;;;;;;;12.20;2.95;;;;;;;;;;5011946;28;20245;-47
2021/09/16 04:58:23;;;;;;;12.00;2.83;;;;;;;;;;5014979;28;20112;-48
2021/09/16 05:00:48;;;;;;;16.83;3.90;;;;;;;;;;5015870;28;20017;-46
2021/09/16 05:03:14;;;;;;;5.40;2.40;;;;;;;;;;5018277;28;20627;-46
2021/09/16 05:05:40;;;;;;;5.68;2.70;;;;;;;;;;5018542;28;20045;-50
2021/09/16 05:08:05;;;;;;;18.38;3.95;;;;;;;;;;5012386;28;20025;-47
2021/09/16 05:10:31;;;;;;;11.07;2.63;;;;;;;;;;5013498;28;20025;-50
2021/09/16 05:12:56;;;;;;;7.22;2.65;;;;;;;;;;5017244;28;20037;-51
2021/09/16 05:15:21;;;;;;;19.20;3.55;;;;;;;;;;5014585;28;20022;-46
2021/09/16 05:17:47;;;;;;;13.88;4.13;;;;;;;;;;5016920;28;20748;-48
2021/09/16 05:20:12;;;;;;;38.65;8.05;;;;;;;;;;5017453;28;20481;-47
2021/09/16 05:22:38;;;;;;;7.43;3.10;;;;;;;;;;5011643;28;20509;-48
2021/09/16 05:25:03;;;;;;;7.40;2.50;;;;;;;;;;5014705;28;20021;-51
2021/09/16 05:27:29;;;;;;;21.33;4.15;;;;;;;;;;5016750;28;20022;-48
2021/09/16 05:29:54;;;;;;;10.48;5.35;;;;;;;;;;5006295;28;20018;-48
2021/09/16 05:32:19;;;;;;;13.65;5.50;;;;;;;;;;5013793;28;20036;-47
2021/09/16 05:34:45;;;;;;;9.77;4.10;;;;;;;;;;5018872;28;20056;-46
2021/09/16 05:37:10;;;;;;;15.85;3.53;;;;;;;;;;5018454;28;20013;-49
2021/09/16 05:39:35;;;;;;;10.82;4.82;;;;;;;;;;5015935;28;20048;-49
2021/09/16 05:42:00;;;;;;;11.63;4.70;;;;;;;;;;5010372;28;20029;-49
2021/09/16 05:44:26;;;;;;;11.18;3.80;;;;;;;;;;5018667;28;20032;-48
2021/09/16 05:46:51;;;;;;;10.20;4.68;;;;;;;;;;5017598;28;20104;-52
2021/09/16 05:49:16;;;;;;;18.80;4.38;;;;;;;;;;5016761;28;20029;-49
2021/09/16 05:51:42;;;;;;;22.08;12.35;;;;;;;;;;5018327;28;20036;-47
2021/09/16 05:54:07;;;;;;;12.40;2.85;;;;;;;;;;5017170;28;20021;-47
2021/09/16 05:56:32;;;;;;;20.55;5.97;;;;;;;;;;5014073;28;20065;-49
2021/09/16 05:58:58;;;;;;;21.63;8.07;;;;;;;;;;5015207;28;20018;-47
2021/09/16 06:01:23;;;;;;;15.88;5.25;;;;;;;;;;5010407;28;20112;-47
2021/09/16 06:03:48;;;;;;;15.80;4.10;;;;;;;;;;5012991;28;20032;-46
2021/09/16 06:06:13;;;;;;;25.65;6.43;;;;;;;;;;5016459;28;20425;-49
2021/09/16 06:08:39;;;;;;;86.75;58.78;;;;;;;;;;5013448;28;20729;-47
2021/09/16 06:11:04;;;;;;;65.38;39.88;;;;;;;;;;5016747;28;20030;-49
2021/09/16 06:13:30;;;;;;;64.88;33.88;;;;;;;;;;5019063;28;20033;-48
2021/09/16 06:15:55;;;;;;;28.70;11.52;;;;;;;;;;5014113;28;20022;-46
2021/09/16 06:18:20;;;;;;;18.25;9.50;;;;;;;;;;5010883;28;20034;-45
2021/09/16 06:20:46;;;;;;;32.72;16.00;;;;;;;;;;5016999;28;20021;-48
2021/09/16 06:23:11;;;;;;;20.20;7.40;;;;;;;;;;5010270;28;20033;-50
2021/09/16 06:25:36;;;;;;;18.63;8.77;;;;;;;;;;5010496;28;20030;-47
2021/09/16 06:28:02;;;;;;;28.63;8.40;;;;;;;;;;5006128;28;20029;-46
2021/09/16 06:30:27;;;;;;;16.33;11.63;;;;;;;;;;5011196;28;20113;-49
2021/09/16 06:32:53;;;;;;;19.45;12.25;;;;;;;;;;5016580;28;20026;-50
2021/09/16 06:35:20;;;;;;;19.58;6.65;;;;;;;;;;5017440;28;20017;-49
2021/09/16 06:37:45;;;;;;;17.38;6.05;;;;;;;;;;5018111;28;20101;-45
2021/09/16 06:40:11;;;;;;;32.28;6.78;;;;;;;;;;5016722;28;20618;-47
2021/09/16 06:42:36;;;;;;;29.80;7.28;;;;;;;;;;5009955;28;20109;-46
2021/09/16 06:45:02;;;;;;;18.25;6.20;;;;;;;;;;5008034;28;20037;-47
2021/09/16 06:47:27;;;;;;;11.98;4.15;;;;;;;;;;5008492;28;20393;-47
2021/09/16 06:49:53;;;;;;;6.05;4.15;;;;;;;;;;5014379;28;20524;-46
2021/09/16 06:52:22;;;;;;;14.35;6.63;;;;;;;;;;5021545;28;20680;-45
2021/09/16 06:54:48;;;;;;;11.52;5.57;;;;;;;;;;5023702;28;20034;-46
2021/09/16 06:57:13;;;;;;;28.92;6.28;;;;;;;;;;5018929;28;20344;-50
2021/09/16 06:59:38;;;;;;;14.30;5.75;;;;;;;;;;5015807;28;20214;-45
2021/09/16 07:02:04;;;;;;;14.43;6.88;;;;;;;;;;5012774;28;20030;-47
2021/09/16 07:04:29;;;;;;;20.92;7.03;;;;;;;;;;5014726;28;20523;-46
2021/09/16 07:06:55;;;;;;;26.08;6.95;;;;;;;;;;5021906;28;20044;-42
2021/09/16 07:09:20;;;;;;;14.05;4.20;;;;;;;;;;5016593;28;20018;-49
2021/09/16 07:11:45;;;;;;;7.70;3.53;;;;;;;;;;5015908;28;20077;-50
2021/09/16 07:14:11;;;;;;;9.95;5.38;;;;;;;;;;5022873;28;20030;-45
2021/09/16 07:16:36;;;;;;;6.88;3.15;;;;;;;;;;5014278;28;20022;-50
2021/09/16 07:19:02;;;;;;;14.10;6.95;;;;;;;;;;5015393;28;20053;-47
2021/09/16 07:21:27;;;;;;;17.23;4.95;;;;;;;;;;5014134;28;20104;-44
2021/09/16 07:23:52;;;;;;;14.75;4.82;;;;;;;;;;5011988;28;20060;-46
2021/09/16 07:26:17;;;;;;;12.13;2.90;;;;;;;;;;5015351;28;20049;-52
2021/09/16 07:28:43;;;;;;;11.10;4.22;;;;;;;;;;5018152;28;20680;-51
2021/09/16 07:31:08;;;;;;;10.50;5.05;;;;;;;;;;5019488;28;20025;-47
2021/09/16 07:33:33;;;;;;;12.65;5.03;;;;;;;;;;5016501;28;20560;-49
2021/09/16 07:35:59;;;;;;;13.15;5.85;;;;;;;;;;5013273;28;20033;-43
2021/09/16 07:38:24;;;;;;;12.98;4.20;;;;;;;;;;5014947;28;20018;-45
2021/09/16 07:40:49;;;;;;;20.48;5.45;;;;;;;;;;5016219;28;20088;-49
2021/09/16 07:43:15;;;;;;;16.55;7.03;;;;;;;;;;5012513;28;20508;-50
2021/09/16 07:45:40;;;;;;;11.95;4.13;;;;;;;;;;5014038;28;20124;-47
2021/09/16 07:48:05;;;;;;;16.50;5.40;;;;;;;;;;5015548;28;20022;-49
2021/09/16 07:50:31;;;;;;;28.85;5.07;;;;;;;;;;5008894;28;20096;-43
2021/09/16 07:52:56;;;;;;;9.57;4.10;;;;;;;;;;5017205;28;20036;-43
2021/09/16 07:55:21;;;;;;;10.40;4.63;;;;;;;;;;5010448;28;20037;-43
2021/09/16 07:57:47;;;;;;;10.05;3.72;;;;;;;;;;5018706;28;20028;-46
2021/09/16 08:00:15;;;;;;;11.00;3.15;;;;;;;;;;5012022;28;20021;-43
2021/09/16 08:02:46;;;;;;;12.13;4.25;;;;;;;;;;5017546;28;20022;-44
2021/09/16 08:05:11;;;;;;;10.27;3.80;;;;;;;;;;5014202;28;20065;-42
2021/09/16 08:07:37;;;;;;;6.47;2.97;;;;;;;;;;5015802;28;20051;-42
2021/09/16 08:10:02;;;;;;;8.70;3.30;;;;;;;;;;5015003;28;20590;-44
2021/09/16 08:12:28;;;;;;;5.68;2.38;;;;;;;;;;5015471;28;20053;-43
2021/09/16 08:14:53;;;;;;;16.65;4.10;;;;;;;;;;5013538;28;20069;-44
2021/09/16 08:17:18;;;;;;;8.63;3.33;;;;;;;;;;5014242;28;20030;-42
2021/09/16 08:19:43;;;;;;;9.30;5.70;;;;;;;;;;5013845;28;20477;-44
2021/09/16 08:22:09;;;;;;;8.25;2.97;;;;;;;;;;5015449;28;20030;-45
2021/09/16 08:24:34;;;;;;;5.85;2.03;;;;;;;;;;5014969;28;20084;-42
2021/09/16 08:27:00;;;;;;;2.70;2.33;;;;;;;;;;5016233;28;20049;-42
2021/09/16 08:29:25;;;;;;;3.65;2.72;;;;;;;;;;5011305;28;20592;-44
2021/09/16 08:31:50;;;;;;;10.75;3.00;;;;;;;;;;5007142;28;20548;-43
2021/09/16 08:34:16;;;;;;;9.65;4.10;;;;;;;;;;5005789;28;20037;-46
2021/09/16 08:36:41;;;;;;;7.82;3.00;;;;;;;;;;5009178;28;20119;-43
2021/09/16 08:39:07;;;;;;;36.78;3.50;;;;;;;;;;5016977;28;20551;-43
2021/09/16 08:41:33;;;;;;;7.72;3.85;;;;;;;;;;5022827;28;20132;-44
2021/09/16 08:44:01;;;;;;;4.43;2.63;;;;;;;;;;5016830;28;20121;-45
2021/09/16 08:46:26;;;;;;;3.35;1.88;;;;;;;;;;5014861;28;20021;-43
2021/09/16 08:48:52;;;;;;;5.95;2.55;;;;;;;;;;5012537;28;20032;-45
2021/09/16 08:51:17;;;;;;;21.30;18.95;;;;;;;;;;5012840;28;20699;-45
2021/09/16 08:53:44;;;;;;;13.40;11.73;;;;;;;;;;5016427;28;20033;-47
2021/09/16 08:56:09;;;;;;;6.05;3.88;;;;;;;;;;5016738;28;20551;-48
2021/09/16 08:58:35;;;;;;;5.97;1.67;;;;;;;;;;5015047;28;20045;-46
2021/09/16 09:01:00;;;;;;;4.00;1.65;;;;;;;;;;5020895;28;20029;-47
2021/09/16 09:03:26;;;;;;;18.23;3.53;;;;;;;;;;5017170;28;20454;-48
2021/09/16 09:05:51;;;;;;;3.22;1.58;;;;;;;;;;5012303;28;20089;-48
2021/09/16 09:08:23;;;;;;;3.53;1.95;;;;;;;;;;5015523;28;20423;-48
2021/09/16 09:10:50;;;;;;;5.32;1.85;;;;;;;;;;5013290;28;20704;-48
2021/09/16 09:13:18;;;;;;;7.25;2.35;;;;;;;;;;5010701;28;20025;-50
2021/09/16 09:15:44;;;;;;;5.60;2.10;;;;;;;;;;5013513;28;20020;-47
2021/09/16 09:18:10;;;;;;;2.78;1.80;;;;;;;;;;5018227;28;20025;-46
2021/09/16 09:20:52;;;;;;;2.75;1.30;;;;;;;;;;5013947;28;20418;-46
2021/09/16 09:23:21;;;;;;;26.48;3.47;;;;;;;;;;5012587;28;20116;-49
2021/09/16 09:25:46;;;;;;;5.95;2.13;;;;;;;;;;5015647;28;20025;-49
2021/09/16 09:28:24;;;;;;;14.57;4.25;;;;;;;;;;5016063;28;20258;-44
2021/09/16 09:30:49;;;;;;;4.57;2.78;;;;;;;;;;5009744;28;20032;-48
2021/09/16 09:33:14;;;;;;;18.95;3.67;;;;;;;;;;5012794;28;20030;-48
2021/09/16 09:35:41;;;;;;;7.35;2.92;;;;;;;;;;5015318;28;20093;-47
2021/09/16 09:38:24;;;;;;;11.27;6.22;;;;;;;;;;5012224;28;20045;-48
2021/09/16 09:40:57;;;;;;;6.35;3.83;;;;;;;;;;5010951;28;20053;-44
2021/09/16 09:43:32;;;;;;;7.30;3.33;;;;;;;;;;5015140;28;20112;-46
2021/09/16 09:46:08;;;;;;;5.47;2.25;;;;;;;;;;5016299;28;20057;-44
2021/09/16 09:48:35;;;;;;;6.60;2.72;;;;;;;;;;5015855;28;20034;-49
2021/09/16 09:51:00;;;;;;;5.43;1.90;;;;;;;;;;5004194;28;20055;-48
2021/09/16 09:53:26;;;;;;;4.53;1.75;;;;;;;;;;5010598;28;20033;-49
2021/09/16 09:55:51;;;;;;;9.65;3.30;;;;;;;;;;5010051;28;20044;-51
2021/09/16 09:58:33;;;;;;;6.75;3.42;;;;;;;;;;5010131;28;20030;-46
2021/09/16 10:01:18;;;;;;;7.57;2.20;;;;;;;;;;5014543;28;20079;-48
2021/09/16 10:03:43;;;;;;;5.90;2.15;;;;;;;;;;5006883;28;20029;-53
2021/09/16 10:06:09;;;;;;;12.98;3.30;;;;;;;;;;5008743;28;20054;-50
2021/09/16 10:08:34;;;;;;;5.80;2.78;;;;;;;;;;5009315;28;20535;-47
2021/09/16 10:11:00;;;;;;;8.13;2.42;;;;;;;;;;5018603;28;20035;-52
2021/09/16 10:13:25;;;;;;;12.95;3.65;;;;;;;;;;5020169;28;20041;-54
2021/09/16 10:15:51;;;;;;;10.23;2.60;;;;;;;;;;5014124;28;20441;-50
2021/09/16 10:18:17;;;;;;;19.13;3.67;;;;;;;;;;5012275;28;20021;-48
2021/09/16 10:20:42;;;;;;;12.55;6.70;;;;;;;;;;5018002;28;20440;-47
2021/09/16 10:23:08;;;;;;;24.10;3.90;;;;;;;;;;5014580;28;20061;-48
2021/09/16 10:25:34;;;;;;;10.48;4.05;;;;;;;;;;5018547;28;20057;-46
2021/09/16 10:28:04;;;;;;;16.63;5.82;;;;;;;;;;5019506;28;20053;-45
2021/09/16 10:30:30;;;;;;;9.15;4.00;;;;;;;;;;5021129;28;20087;-47
2021/09/16 10:33:06;;;;;;;4.90;2.75;;;;;;;;;;5015123;28;20500;-47
2021/09/16 10:35:32;;;;;;;6.38;2.65;;;;;;;;;;5018353;28;20105;-48
2021/09/16 10:38:16;;;;;;;16.88;4.72;;;;;;;;;;5017266;28;20041;-47
2021/09/16 10:40:42;;;;;;;11.38;5.35;;;;;;;;;;5017118;28;20018;-48
2021/09/16 10:43:07;;;;;;;10.80;4.53;;;;;;;;;;5013306;28;20793;-49
2021/09/16 10:45:35;;;;;;;6.93;3.47;;;;;;;;;;5013512;28;20018;-49
2021/09/16 10:48:13;;;;;;;19.67;4.78;;;;;;;;;;5015215;28;20117;-49
2021/09/16 10:50:45;;;;;;;18.70;2.70;;;;;;;;;;5019073;28;20026;-46
2021/09/16 10:53:29;;;;;;;13.35;3.85;;;;;;;;;;5010811;28;20485;-50
2021/09/16 10:55:54;;;;;;;22.42;4.90;;;;;;;;;;5012007;28;20033;-47
2021/09/16 10:58:23;;;;;;;9.43;4.82;;;;;;;;;;5012505;28;20036;-48
2021/09/16 11:00:49;;;;;;;8.15;2.92;;;;;;;;;;5014499;28;20018;-47
2021/09/16 11:03:16;;;;;;;10.90;4.00;;;;;;;;;;5007897;28;20038;-49
2021/09/16 11:05:46;;;;;;;16.15;4.18;;;;;;;;;;5007529;28;20792;-46
2021/09/16 11:08:12;;;;;;;20.50;5.15;;;;;;;;;;5012763;28;20114;-47
2021/09/16 11:10:37;;;;;;;9.57;3.60;;;;;;;;;;5017199;28;20029;-48
2021/09/16 11:13:25;;;;;;;18.45;4.35;;;;;;;;;;5014976;28;20785;-49
2021/09/16 11:15:53;;;;;;;19.40;4.57;;;;;;;;;;5019405;28;20438;-45
2021/09/16 11:18:20;;;;;;;13.52;4.95;;;;;;;;;;5014849;28;20028;-59
2021/09/16 11:20:46;;;;;;;19.85;5.82;;;;;;;;;;5012095;28;20022;-59
2021/09/16 11:23:12;;;;;;;15.70;5.53;;;;;;;;;;5017148;28;20315;-58
2021/09/16 11:25:41;;;;;;;7.68;4.90;;;;;;;;;;5014766;28;20752;-58
2021/09/16 11:28:07;;;;;;;11.98;3.67;;;;;;;;;;5016799;28;20411;-58
2021/09/16 11:30:34;;;;;;;14.55;4.25;;;;;;;;;;5015190;28;20469;-58
2021/09/16 11:33:18;;;;;;;13.82;3.85;;;;;;;;;;5012355;28;20018;-58
2021/09/16 11:35:44;;;;;;;11.95;5.05;;;;;;;;;;5015469;28;20485;-58
2021/09/16 11:38:09;;;;;;;11.18;3.60;;;;;;;;;;5017348;28;20025;-58
2021/09/16 11:40:36;;;;;;;26.00;5.28;;;;;;;;;;5017265;28;20049;-58
2021/09/16 11:43:02;;;;;;;10.30;3.05;;;;;;;;;;5014358;28;20037;-58
2021/09/16 11:45:29;;;;;;;19.05;4.05;;;;;;;;;;5020574;28;20026;-58
2021/09/16 11:47:56;;;;;;;9.38;3.92;;;;;;;;;;5017052;28;20018;-58
2021/09/16 11:50:33;;;;;;;16.00;4.90;;;;;;;;;;5016086;28;20104;-58
2021/09/16 11:53:00;;;;;;;10.93;3.50;;;;;;;;;;5012481;28;20026;-58
2021/09/16 11:55:26;;;;;;;25.58;4.72;;;;;;;;;;5008508;28;20044;-57
2021/09/16 11:57:56;;;;;;;16.00;5.13;;;;;;;;;;5005627;28;20025;-58
2021/09/16 12:00:25;;;;;;;17.65;6.40;;;;;;;;;;5017447;28;20017;-58
2021/09/16 12:02:50;;;;;;;8.77;4.50;;;;;;;;;;5018763;28;20088;-57
2021/09/16 12:05:31;;;;;;;11.52;5.25;;;;;;;;;;5023881;28;20759;-58
2021/09/16 12:07:56;;;;;;;20.45;5.22;;;;;;;;;;5014613;28;20030;-58
2021/09/16 12:10:24;;;;;;;25.42;6.45;;;;;;;;;;5013464;28;20553;-58
2021/09/16 12:12:50;;;;;;;22.10;6.82;;;;;;;;;;5010581;28;20040;-57
2021/09/16 12:15:22;;;;;;;13.93;3.60;;;;;;;;;;5007046;28;20106;-57
2021/09/16 12:17:47;;;;;;;9.02;4.88;;;;;;;;;;5013586;28;20049;-57
2021/09/16 12:20:12;;;;;;;12.38;5.57;;;;;;;;;;5009865;28;20045;-57
2021/09/16 12:22:38;;;;;;;14.02;3.88;;;;;;;;;;5011228;28;20041;-57
2021/09/16 12:25:03;;;;;;;11.52;3.28;;;;;;;;;;5017041;28;20029;-57
2021/09/16 12:27:29;;;;;;;14.05;3.92;;;;;;;;;;5020384;28;20036;-57
2021/09/16 12:29:55;;;;;;;19.80;4.00;;;;;;;;;;5014714;28;20040;-57
2021/09/16 12:32:29;;;;;;;11.65;4.85;;;;;;;;;;5017699;28;20100;-57
2021/09/16 12:34:54;;;;;;;12.20;4.82;;;;;;;;;;5015358;28;20010;-57
2021/09/16 12:37:19;;;;;;;10.38;3.53;;;;;;;;;;5015529;28;20120;-55
2021/09/16 12:39:49;;;;;;;7.45;2.35;;;;;;;;;;5020536;28;20071;-51
2021/09/16 12:42:24;;;;;;;10.68;4.25;;;;;;;;;;5017410;28;20100;-54
2021/09/16 12:44:49;;;;;;;27.60;4.88;;;;;;;;;;5005670;28;20285;-52
2021/09/16 12:47:16;;;;;;;8.48;3.10;;;;;;;;;;5011219;28;20038;-53
2021/09/16 12:49:41;;;;;;;11.55;2.72;;;;;;;;;;5015108;28;20026;-53
2021/09/16 12:52:06;;;;;;;12.73;3.92;;;;;;;;;;5019470;28;20118;-53
2021/09/16 12:54:32;;;;;;;20.48;4.55;;;;;;;;;;5021858;28;20029;-52
2021/09/16 12:56:58;;;;;;;16.63;3.58;;;;;;;;;;5018768;28;20374;-52
2021/09/16 12:59:24;;;;;;;15.52;4.35;;;;;;;;;;5016659;28;20079;-52
2021/09/16 13:02:09;;;;;;;16.48;3.70;;;;;;;;;;5013592;28;20026;-52
2021/09/16 13:04:50;;;;;;;7.15;3.72;;;;;;;;;;5008021;28;20052;-52
2021/09/16 13:07:15;;;;;;;6.85;2.63;;;;;;;;;;5008285;28;20493;-52
2021/09/16 13:09:40;;;;;;;6.22;3.75;;;;;;;;;;5015858;28;20061;-50
2021/09/16 13:12:12;;;;;;;9.25;2.80;;;;;;;;;;5018102;28;20019;-53
2021/09/16 13:14:38;;;;;;;10.48;2.60;;;;;;;;;;5020136;28;20033;-51
2021/09/16 13:17:03;;;;;;;5.28;2.22;;;;;;;;;;5023911;28;20017;-52
2021/09/16 13:19:28;;;;;;;7.93;2.55;;;;;;;;;;5020975;28;20036;-53
2021/09/16 13:21:53;;;;;;;12.52;3.58;;;;;;;;;;5014756;28;20552;-50
2021/09/16 13:24:19;;;;;;;8.30;3.65;;;;;;;;;;5019455;28;20021;-52
2021/09/16 13:26:44;;;;;;;7.57;2.72;;;;;;;;;;5011188;28;20044;-52
2021/09/16 13:29:10;;;;;;;11.32;4.97;;;;;;;;;;5013526;28;20558;-53
2021/09/16 13:31:35;;;;;;;4.65;3.03;;;;;;;;;;5018602;28;20029;-53
2021/09/16 13:34:01;;;;;;;8.80;6.30;;;;;;;;;;5018145;28;20040;-53
2021/09/16 13:36:26;;;;;;;7.40;3.72;;;;;;;;;;5017798;28;20045;-54
2021/09/16 13:38:51;;;;;;;8.77;3.70;;;;;;;;;;5017800;28;20503;-52
2021/09/16 13:41:16;;;;;;;13.20;9.80;;;;;;;;;;5020998;28;20071;-53
2021/09/16 13:43:42;;;;;;;8.82;3.15;;;;;;;;;;5015589;28;20022;-53
2021/09/16 13:46:07;;;;;;;7.75;3.42;;;;;;;;;;5013194;28;20026;-52
2021/09/16 13:48:32;;;;;;;4.43;2.67;;;;;;;;;;5013820;28;20022;-53
2021/09/16 13:50:58;;;;;;;16.95;3.78;;;;;;;;;;5018739;28;20018;-55
2021/09/16 13:53:23;;;;;;;7.38;2.30;;;;;;;;;;5014476;28;20044;-54
2021/09/16 13:55:49;;;;;;;5.38;2.60;;;;;;;;;;5021342;28;20014;-49
2021/09/16 13:58:14;;;;;;;20.60;2.60;;;;;;;;;;5016649;28;20017;-54
2021/09/16 14:00:39;;;;;;;7.63;3.55;;;;;;;;;;5016637;28;20160;-52
2021/09/16 14:03:04;;;;;;;4.68;2.15;;;;;;;;;;5021333;28;20090;-53
2021/09/16 14:05:30;;;;;;;9.90;2.80;;;;;;;;;;5020080;28;20399;-48
2021/09/16 14:07:55;;;;;;;4.47;2.72;;;;;;;;;;5024928;28;20480;-52
2021/09/16 14:10:21;;;;;;;10.73;5.50;;;;;;;;;;5018250;28;20438;-50
2021/09/16 14:12:46;;;;;;;10.57;7.78;;;;;;;;;;5016839;28;20548;-51
2021/09/16 14:15:12;;;;;;;9.20;4.05;;;;;;;;;;5012379;28;20029;-53
2021/09/16 14:17:37;;;;;;;5.50;2.40;;;;;;;;;;5014337;28;20021;-52
2021/09/16 14:20:04;;;;;;;3.85;2.00;;;;;;;;;;5020123;28;20029;-52
2021/09/16 14:22:29;;;;;;;7.90;2.00;;;;;;;;;;5021619;28;20171;-52
2021/09/16 14:24:54;;;;;;;4.38;1.98;;;;;;;;;;5023032;28;20022;-53
2021/09/16 14:27:20;;;;;;;10.48;3.47;;;;;;;;;;5020030;28;20433;-53
2021/09/16 14:29:46;;;;;;;4.65;2.38;;;;;;;;;;5020555;28;20021;-50
2021/09/16 14:32:13;;;;;;;3.72;1.88;;;;;;;;;;5024365;28;20405;-49